createdAt,value
2019-04-05T00:00:35.462Z,100.00
2019-04-05T00:03:06.056Z,100.00
2019-04-05T00:05:36.587Z,100.00
2019-04-05T00:08:07.234Z,100.00
2019-04-05T00:10:37.814Z,100.00
2019-04-05T00:13:09.093Z,100.00
2019-04-05T00:15:39.590Z,100.00
2019-04-05T00:18:10.162Z,100.00
2019-04-05T00:20:42.221Z,100.00
2019-04-05T00:23:12.790Z,100.00
2019-04-05T00:25:43.357Z,100.00
2019-04-05T00:28:17.034Z,100.00
2019-04-05T00:30:47.569Z,100.00
2019-04-05T00:33:18.145Z,100.00
2019-04-05T00:35:48.865Z,100.00
2019-04-05T00:38:21.767Z,100.00
2019-04-05T00:40:52.313Z,100.00
2019-04-05T00:43:22.913Z,100.00
2019-04-05T00:45:53.432Z,100.00
2019-04-05T00:48:24.064Z,100.00
2019-04-05T00:50:54.654Z,100.00
2019-04-05T00:53:25.338Z,100.00
2019-04-05T00:55:55.910Z,100.00
2019-04-05T00:58:26.541Z,100.00
2019-04-05T01:00:58.291Z,100.00
2019-04-05T01:03:31.521Z,100.00
2019-04-05T01:06:02.191Z,100.00
2019-04-05T01:08:34.514Z,100.00
2019-04-05T01:11:05.123Z,100.00
2019-04-05T01:13:36.254Z,100.00
2019-04-05T01:16:06.824Z,100.00
2019-04-05T01:18:37.451Z,100.00
2019-04-05T01:21:10.848Z,100.00
2019-04-05T01:23:41.440Z,100.00
2019-04-05T01:26:15.671Z,100.00
2019-04-05T01:28:46.305Z,100.00
2019-04-05T01:31:16.859Z,100.00
2019-04-05T01:33:47.468Z,100.00
2019-04-05T01:36:18.040Z,100.00
2019-04-05T01:38:48.725Z,100.00
2019-04-05T01:41:19.402Z,100.00
2019-04-05T01:43:50.043Z,100.00
2019-04-05T01:46:20.598Z,100.00
2019-04-05T01:48:51.199Z,100.00
2019-04-05T01:51:21.852Z,100.00
2019-04-05T01:53:53.763Z,100.00
2019-04-05T01:56:24.253Z,100.00
2019-04-05T01:58:54.840Z,100.00
2019-04-05T02:01:28.093Z,100.00
2019-04-05T02:03:58.737Z,100.00
2019-04-05T02:06:29.515Z,100.00
2019-04-05T02:09:00.160Z,100.00
2019-04-05T02:11:32.083Z,100.00
2019-04-05T02:14:02.822Z,100.00
2019-04-05T02:16:33.337Z,100.00
2019-04-05T02:19:04.023Z,100.00
2019-04-05T02:21:34.536Z,100.00
2019-04-05T02:24:05.237Z,100.00
2019-04-05T02:26:35.842Z,100.00
2019-04-05T02:29:06.501Z,100.00
2019-04-05T02:31:37.094Z,100.00
2019-04-05T02:34:07.646Z,100.00
2019-04-05T02:36:38.290Z,100.00
2019-04-05T02:39:09.546Z,100.00
2019-04-05T02:41:41.575Z,100.00
2019-04-05T02:44:14.272Z,100.00
2019-04-05T02:46:47.058Z,100.00
2019-04-05T02:49:20.744Z,100.00
2019-04-05T02:51:52.211Z,100.00
2019-04-05T02:54:23.088Z,100.00
2019-04-05T02:56:53.919Z,100.00
2019-04-05T02:59:26.365Z,100.00
2019-04-05T03:01:59.144Z,100.00
2019-04-05T03:04:30.310Z,100.00
2019-04-05T03:07:01.142Z,100.00
2019-04-05T03:09:35.991Z,100.00
2019-04-05T03:12:07.383Z,100.00
2019-04-05T03:14:38.896Z,100.00
2019-04-05T03:17:11.645Z,100.00
2019-04-05T03:19:44.428Z,100.00
2019-04-05T03:22:16.624Z,100.00
2019-04-05T03:24:49.021Z,100.00
2019-04-05T03:27:31.553Z,100.00
2019-04-05T03:30:03.533Z,100.00
2019-04-05T03:32:34.337Z,100.00
2019-04-05T03:35:05.338Z,100.00
2019-04-05T03:37:36.086Z,100.00
2019-04-05T03:40:07.718Z,100.00
2019-04-05T03:42:38.877Z,100.00
2019-04-05T03:45:09.677Z,100.00
2019-04-05T03:47:40.323Z,100.00
2019-04-05T03:50:12.043Z,100.00
2019-04-05T03:52:42.602Z,100.00
2019-04-05T03:55:13.257Z,100.00
2019-04-05T03:57:44.256Z,100.00
2019-04-05T04:00:16.458Z,100.00
2019-04-05T04:02:47.015Z,100.00
2019-04-05T04:05:17.583Z,100.00
2019-04-05T04:07:48.248Z,100.00
2019-04-05T04:10:19.945Z,100.00
2019-04-05T04:12:51.032Z,100.00
2019-04-05T04:15:23.164Z,100.00
2019-04-05T04:17:56.128Z,100.00
2019-04-05T04:20:42.089Z,100.00
2019-04-05T04:23:13.345Z,100.00
2019-04-05T04:25:44.960Z,100.00
2019-04-05T04:28:16.018Z,100.00
2019-04-05T04:30:47.718Z,100.00
2019-04-05T04:33:18.774Z,100.00
2019-04-05T04:35:51.407Z,100.00
2019-04-05T04:38:24.792Z,100.00
2019-04-05T04:40:55.978Z,100.00
2019-04-05T04:43:27.231Z,100.00
2019-04-05T04:45:57.843Z,100.00
2019-04-05T04:48:30.972Z,100.00
2019-04-05T04:51:02.029Z,100.00
2019-04-05T04:53:32.630Z,100.00
2019-04-05T04:56:03.750Z,100.00
2019-04-05T04:58:34.312Z,100.00
2019-04-05T05:01:05.511Z,100.00
2019-04-05T05:03:36.649Z,100.00
2019-04-05T05:06:07.967Z,100.00
2019-04-05T05:08:38.901Z,100.00
2019-04-05T05:11:14.853Z,100.00
2019-04-05T05:13:43.150Z,100.00
2019-04-05T05:16:13.945Z,100.00
2019-04-05T05:18:45.093Z,100.00
2019-04-05T05:21:16.083Z,100.00
2019-04-05T05:23:47.020Z,100.00
2019-04-05T05:26:18.207Z,100.00
2019-04-05T05:28:48.991Z,100.00
2019-04-05T05:31:20.478Z,100.00
2019-04-05T05:33:51.639Z,100.00
2019-04-05T05:36:22.557Z,100.00
2019-04-05T05:38:53.164Z,100.00
2019-04-05T05:41:26.094Z,100.00
2019-04-05T05:43:56.705Z,100.00
2019-04-05T05:46:27.323Z,100.00
2019-04-05T05:48:57.907Z,100.00
2019-04-05T05:51:28.668Z,100.00
2019-04-05T05:53:59.744Z,100.00
2019-04-05T05:56:30.385Z,100.00
2019-04-05T05:59:00.939Z,100.00
2019-04-05T06:01:31.630Z,100.00
2019-04-05T06:04:02.175Z,100.00
2019-04-05T06:06:32.817Z,100.00
2019-04-05T06:09:05.240Z,100.00
2019-04-05T06:11:37.137Z,100.00
2019-04-05T06:14:07.725Z,100.00
2019-04-05T06:16:46.280Z,100.00
2019-04-05T06:19:10.997Z,100.00
2019-04-05T06:21:42.008Z,100.00
2019-04-05T06:24:12.605Z,100.00
2019-04-05T06:26:43.205Z,100.00
2019-04-05T06:29:13.798Z,100.00
2019-04-05T06:31:44.386Z,100.00
2019-04-05T06:34:14.923Z,100.00
2019-04-05T06:36:45.611Z,100.00
2019-04-05T06:39:16.141Z,100.00
2019-04-05T06:41:49.127Z,100.00
2019-04-05T06:44:19.673Z,100.00
2019-04-05T06:46:50.315Z,100.00
2019-04-05T06:49:20.852Z,100.00
2019-04-05T06:51:51.528Z,100.00
2019-04-05T06:54:22.059Z,100.00
2019-04-05T06:56:52.695Z,100.00
2019-04-05T06:59:23.268Z,100.00
2019-04-05T07:01:56.863Z,100.00
2019-04-05T07:04:27.448Z,100.00
2019-04-05T07:06:58.681Z,100.00
2019-04-05T07:09:29.243Z,100.00
2019-04-05T07:11:59.853Z,100.00
2019-04-05T07:14:30.421Z,100.00
2019-04-05T07:17:01.076Z,100.00
2019-04-05T07:19:33.925Z,100.00
2019-04-05T07:22:04.562Z,100.00
2019-04-05T07:24:35.144Z,100.00
2019-04-05T07:27:05.979Z,100.00
2019-04-05T07:29:38.654Z,100.00
2019-04-05T07:32:09.266Z,100.00
2019-04-05T07:34:39.883Z,100.00
2019-04-05T07:37:10.553Z,100.00
2019-04-05T07:39:41.069Z,100.00
2019-04-05T07:42:11.786Z,100.00
2019-04-05T07:44:42.379Z,100.00
2019-04-05T07:47:13.055Z,100.00
2019-04-05T07:49:43.642Z,100.00
2019-04-05T07:52:14.320Z,100.00
2019-04-05T07:54:44.912Z,100.00
2019-04-05T07:57:15.537Z,100.00
2019-04-05T07:59:47.450Z,100.00
2019-04-05T08:02:18.044Z,100.00
2019-04-05T08:04:48.640Z,100.00
2019-04-05T08:07:21.550Z,100.00
2019-04-05T08:09:55.287Z,100.00
2019-04-05T08:12:27.164Z,100.00
2019-04-05T08:14:58.364Z,100.00
2019-04-05T08:17:28.962Z,100.00
2019-04-05T08:19:59.492Z,99.03
2019-04-05T08:22:32.349Z,98.91
2019-04-05T08:25:02.418Z,98.78
2019-04-05T08:27:33.033Z,98.35
2019-04-05T08:30:03.623Z,97.30
2019-04-05T08:32:34.288Z,95.95
2019-04-05T08:35:04.895Z,95.65
2019-04-05T08:37:36.002Z,95.68
2019-04-05T08:40:08.312Z,95.22
2019-04-05T08:42:38.969Z,94.11
2019-04-05T08:45:09.934Z,93.71
2019-04-05T08:47:40.565Z,93.68
2019-04-05T08:50:11.392Z,94.10
2019-04-05T08:52:41.977Z,92.49
2019-04-05T08:55:12.958Z,89.93
2019-04-05T08:57:48.055Z,85.56
2019-04-05T09:00:18.912Z,84.19
2019-04-05T09:02:52.190Z,85.67
2019-04-05T09:05:21.828Z,85.86
2019-04-05T09:07:53.961Z,85.59
2019-04-05T09:10:24.466Z,83.81
2019-04-05T09:12:55.561Z,84.08
2019-04-05T09:15:26.080Z,84.64
2019-04-05T09:17:56.712Z,83.43
2019-04-05T09:20:27.259Z,83.41
2019-04-05T09:22:57.813Z,82.53
2019-04-05T09:25:28.410Z,81.14
2019-04-05T09:27:58.965Z,80.73
2019-04-05T09:30:29.544Z,81.13
2019-04-05T09:33:00.122Z,81.60
2019-04-05T09:35:30.712Z,81.67
2019-04-05T09:38:01.335Z,81.60
2019-04-05T09:40:31.958Z,81.37
2019-04-05T09:43:02.607Z,81.63
2019-04-05T09:45:33.206Z,81.99
2019-04-05T09:48:03.816Z,82.65
2019-04-05T09:50:34.458Z,83.10
2019-04-05T09:53:05.249Z,83.47
2019-04-05T09:55:35.823Z,84.20
2019-04-05T09:58:09.953Z,85.16
2019-04-05T10:00:39.842Z,85.18
2019-04-05T10:03:10.457Z,86.10
2019-04-05T10:05:41.066Z,86.78
2019-04-05T10:08:11.707Z,84.97
2019-04-05T10:10:42.298Z,85.87
2019-04-05T10:13:12.886Z,85.58
2019-04-05T10:15:43.461Z,85.59
2019-04-05T10:18:15.644Z,86.01
2019-04-05T10:20:46.162Z,86.19
2019-04-05T10:23:16.772Z,85.99
2019-04-05T10:25:47.344Z,86.14
2019-04-05T10:28:18.003Z,86.01
2019-04-05T10:30:48.584Z,85.64
2019-04-05T10:33:19.152Z,85.38
2019-04-05T10:35:49.786Z,85.69
2019-04-05T10:38:20.358Z,85.67
2019-04-05T10:40:53.220Z,86.13
2019-04-05T10:43:23.818Z,86.02
2019-04-05T10:45:54.430Z,86.04
2019-04-05T10:48:24.998Z,86.31
2019-04-05T10:50:55.681Z,86.37
2019-04-05T10:53:26.289Z,85.84
2019-04-05T10:55:56.874Z,85.39
2019-04-05T10:58:27.431Z,85.29
2019-04-05T11:00:58.040Z,85.11
2019-04-05T11:03:28.671Z,84.79
2019-04-05T11:05:59.262Z,85.59
2019-04-05T11:08:29.830Z,85.95
2019-04-05T11:11:00.638Z,85.28
2019-04-05T11:13:31.253Z,85.82
2019-04-05T11:16:02.020Z,86.21
2019-04-05T11:18:34.186Z,86.39
2019-04-05T11:21:04.798Z,86.46
2019-04-05T11:23:35.361Z,86.30
2019-04-05T11:26:05.964Z,86.12
2019-04-05T11:28:36.619Z,86.28
2019-04-05T11:31:07.674Z,85.63
2019-04-05T11:33:40.278Z,85.80
2019-04-05T11:36:11.584Z,85.93
2019-04-05T11:38:44.073Z,85.57
2019-04-05T11:41:14.768Z,85.93
2019-04-05T11:43:48.648Z,84.65
2019-04-05T11:46:20.301Z,84.88
2019-04-05T11:48:53.780Z,84.66
2019-04-05T11:51:27.249Z,84.55
2019-04-05T11:53:57.757Z,84.81
2019-04-05T11:56:28.408Z,84.40
2019-04-05T11:58:59.588Z,85.43
2019-04-05T12:01:55.126Z,85.92
2019-04-05T12:04:26.127Z,85.08
2019-04-05T12:06:56.713Z,84.22
2019-04-05T12:09:31.673Z,84.44
2019-04-05T12:12:02.276Z,84.69
2019-04-05T12:14:34.522Z,85.03
2019-04-05T12:17:05.676Z,84.66
2019-04-05T12:19:38.205Z,84.12
2019-04-05T12:22:09.427Z,83.97
2019-04-05T12:24:40.354Z,83.91
2019-04-05T12:27:10.956Z,84.60
2019-04-05T12:29:41.678Z,84.40
2019-04-05T12:32:13.514Z,84.58
2019-04-05T12:34:47.333Z,84.82
2019-04-05T12:37:17.999Z,84.95
2019-04-05T12:39:48.619Z,85.11
2019-04-05T12:42:19.215Z,84.91
2019-04-05T12:44:49.792Z,85.06
2019-04-05T12:47:20.532Z,84.98
2019-04-05T12:49:54.237Z,85.07
2019-04-05T12:52:27.577Z,85.53
2019-04-05T12:54:58.690Z,85.83
2019-04-05T12:57:29.318Z,85.87
2019-04-05T12:59:59.992Z,86.41
2019-04-05T13:02:33.927Z,86.75
2019-04-05T13:05:03.081Z,86.97
2019-04-05T13:07:35.150Z,88.26
2019-04-05T13:10:07.164Z,89.19
2019-04-05T13:12:37.754Z,89.59
2019-04-05T13:15:13.764Z,90.01
2019-04-05T13:17:41.317Z,89.95
2019-04-05T13:20:17.211Z,90.97
2019-04-05T13:22:47.851Z,91.47
2019-04-05T13:25:18.970Z,91.41
2019-04-05T13:27:49.709Z,91.62
2019-04-05T13:30:21.747Z,91.48
2019-04-05T13:32:53.474Z,91.42
2019-04-05T13:35:24.343Z,91.41
2019-04-05T13:37:55.020Z,91.51
2019-04-05T13:40:27.385Z,91.71
2019-04-05T13:43:01.414Z,92.10
2019-04-05T13:45:33.360Z,92.05
2019-04-05T13:48:03.969Z,91.76
2019-04-05T13:50:34.580Z,91.65
2019-04-05T13:53:05.214Z,91.83
2019-04-05T13:55:35.826Z,92.41
2019-04-05T13:58:10.703Z,92.57
2019-04-05T14:00:39.229Z,92.98
2019-04-05T14:03:09.855Z,92.88
2019-04-05T14:05:40.546Z,92.65
2019-04-05T14:08:11.214Z,93.75
2019-04-05T14:10:42.036Z,94.03
2019-04-05T14:13:15.813Z,93.91
2019-04-05T14:15:46.432Z,93.43
2019-04-05T14:18:17.041Z,93.45
2019-04-05T14:20:49.627Z,93.41
2019-04-05T14:23:23.322Z,93.44
2019-04-05T14:25:52.340Z,93.75
2019-04-05T14:28:23.030Z,93.88
2019-04-05T14:30:53.643Z,93.86
2019-04-05T14:33:25.937Z,94.45
2019-04-05T14:35:56.447Z,94.45
2019-04-05T14:38:31.361Z,94.78
2019-04-05T14:41:02.049Z,94.46
2019-04-05T14:43:32.663Z,94.37
2019-04-05T14:46:03.336Z,94.54
2019-04-05T14:48:35.072Z,94.54
2019-04-05T14:51:05.768Z,94.57
2019-04-05T14:53:36.406Z,94.85
2019-04-05T14:56:06.934Z,95.25
2019-04-05T14:58:38.558Z,95.22
2019-04-05T15:01:10.491Z,95.11
2019-04-05T15:03:41.513Z,95.03
2019-04-05T15:06:12.151Z,95.61
2019-04-05T15:08:42.789Z,95.79
2019-04-05T15:11:13.406Z,95.49
2019-04-05T15:13:44.049Z,95.43
2019-04-05T15:16:14.695Z,95.48
2019-04-05T15:18:45.322Z,95.59
2019-04-05T15:21:15.888Z,95.99
2019-04-05T15:23:46.528Z,96.35
2019-04-05T15:26:20.554Z,95.78
2019-04-05T15:28:55.198Z,95.75
2019-04-05T15:31:26.544Z,95.60
2019-04-05T15:33:57.701Z,95.15
2019-04-05T15:36:29.447Z,95.24
2019-04-05T15:39:02.001Z,95.60
2019-04-05T15:41:33.100Z,95.65
2019-04-05T15:44:05.302Z,95.86
2019-04-05T15:46:36.365Z,95.99
2019-04-05T15:49:06.951Z,96.32
2019-04-05T15:51:37.535Z,96.60
2019-04-05T15:54:08.232Z,96.68
2019-04-05T15:56:39.178Z,96.67
2019-04-05T15:59:09.858Z,96.20
2019-04-05T16:01:41.173Z,96.22
2019-04-05T16:04:11.845Z,96.69
2019-04-05T16:06:42.818Z,96.79
2019-04-05T16:09:17.231Z,97.09
2019-04-05T16:11:47.876Z,97.57
2019-04-05T16:14:18.618Z,98.18
2019-04-05T16:16:49.159Z,98.07
2019-04-05T16:19:19.803Z,97.60
2019-04-05T16:21:50.390Z,97.37
2019-04-05T16:24:24.037Z,97.69
2019-04-05T16:26:54.600Z,97.77
2019-04-05T16:29:27.996Z,97.77
2019-04-05T16:31:58.609Z,97.54
2019-04-05T16:34:29.330Z,97.49
2019-04-05T16:36:59.955Z,97.47
2019-04-05T16:39:30.620Z,97.51
2019-04-05T16:42:02.893Z,97.49
2019-04-05T16:44:54.561Z,97.55
2019-04-05T16:47:28.357Z,97.66
2019-04-05T16:49:59.005Z,98.24
2019-04-05T16:52:29.630Z,98.79
2019-04-05T16:55:00.278Z,98.98
2019-04-05T16:57:30.826Z,99.28
2019-04-05T17:00:07.065Z,99.84
2019-04-05T17:02:37.723Z,100.00
2019-04-05T17:05:10.100Z,100.00
2019-04-05T17:07:40.701Z,100.00
2019-04-05T17:10:12.934Z,100.00
2019-04-05T17:12:43.531Z,100.00
2019-04-05T17:15:14.287Z,100.00
2019-04-05T17:17:44.883Z,100.00
2019-04-05T17:20:15.750Z,100.00
2019-04-05T17:22:57.444Z,100.00
2019-04-05T17:25:19.711Z,100.00
2019-04-05T17:27:50.292Z,100.00
2019-04-05T17:30:21.118Z,100.00
2019-04-05T17:32:51.749Z,100.00
2019-04-05T17:35:22.333Z,100.00
2019-04-05T17:37:52.948Z,100.00
2019-04-05T17:40:23.597Z,100.00
2019-04-05T17:42:54.171Z,100.00
2019-04-05T17:45:30.369Z,100.00
2019-04-05T17:48:00.977Z,100.00
2019-04-05T17:50:34.793Z,100.00
2019-04-05T17:53:12.568Z,100.00
2019-04-05T17:55:39.894Z,100.00
2019-04-05T17:58:12.039Z,100.00
2019-04-05T18:00:43.175Z,100.00
2019-04-05T18:03:13.814Z,100.00
2019-04-05T18:05:44.475Z,100.00
2019-04-05T18:08:15.047Z,100.00
2019-04-05T18:10:45.709Z,100.00
2019-04-05T18:13:22.701Z,100.00
2019-04-05T18:15:53.499Z,100.00
2019-04-05T18:18:24.058Z,100.00
2019-04-05T18:20:54.678Z,100.00
2019-04-05T18:23:25.919Z,100.00
2019-04-05T18:25:56.554Z,100.00
2019-04-05T18:28:27.131Z,100.00
2019-04-05T18:30:57.904Z,100.00
2019-04-05T18:33:28.548Z,100.00
2019-04-05T18:35:59.168Z,100.00
2019-04-05T18:38:30.000Z,100.00
2019-04-05T18:41:00.702Z,100.00
2019-04-05T18:43:34.139Z,100.00
2019-04-05T18:46:04.880Z,100.00
2019-04-05T18:48:35.493Z,100.00
2019-04-05T18:51:06.158Z,100.00
2019-04-05T18:53:38.829Z,100.00
2019-04-05T18:56:09.197Z,100.00
2019-04-05T18:58:39.801Z,100.00
2019-04-05T19:01:10.439Z,100.00
2019-04-05T19:03:43.061Z,100.00
2019-04-05T19:06:13.656Z,100.00
2019-04-05T19:08:44.251Z,100.00
2019-04-05T19:11:15.006Z,100.00
2019-04-05T19:13:59.879Z,100.00
2019-04-05T19:16:17.877Z,100.00
2019-04-05T19:18:48.488Z,100.00
2019-04-05T19:21:19.093Z,100.00
2019-04-05T19:23:50.976Z,100.00
2019-04-05T19:26:22.010Z,100.00
2019-04-05T19:28:52.565Z,100.00
2019-04-05T19:49:09.613Z,100.00
2019-04-05T19:51:40.319Z,100.00
2019-04-05T19:54:10.910Z,100.00
2019-04-05T19:56:41.592Z,100.00
2019-04-05T19:59:12.203Z,100.00
2019-04-05T20:01:42.795Z,100.00
2019-04-05T20:04:13.351Z,100.00
2019-04-05T20:06:44.027Z,100.00
2019-04-05T20:09:15.073Z,100.00
2019-04-05T20:11:45.745Z,100.00
2019-04-05T20:14:16.329Z,100.00
2019-04-05T20:16:46.911Z,100.00
2019-04-05T20:19:17.535Z,100.00
2019-04-05T20:21:48.107Z,100.00
2019-04-05T20:24:21.705Z,100.00
2019-04-05T20:26:52.343Z,100.00
2019-04-05T20:29:22.932Z,100.00
2019-04-05T20:31:53.551Z,100.00
2019-04-05T20:34:24.115Z,100.00
2019-04-05T20:36:54.730Z,100.00
2019-04-05T20:39:25.281Z,100.00
2019-04-05T20:41:58.206Z,100.00
2019-04-05T20:44:28.823Z,100.00
2019-04-05T20:46:59.424Z,100.00
2019-04-05T20:49:30.027Z,100.00
2019-04-05T20:52:00.657Z,100.00
2019-04-05T20:54:31.255Z,100.00
2019-04-05T20:57:01.894Z,100.00
2019-04-05T20:59:32.500Z,100.00
2019-04-05T21:02:03.140Z,100.00
2019-04-05T21:04:33.714Z,100.00
2019-04-05T21:07:04.364Z,100.00
2019-04-05T21:09:34.930Z,100.00
2019-04-05T21:12:05.612Z,100.00
2019-04-05T21:14:37.153Z,100.00
2019-04-05T21:17:07.743Z,100.00
2019-04-05T21:19:38.385Z,100.00
2019-04-05T21:22:09.022Z,100.00
2019-04-05T21:24:42.038Z,100.00
2019-04-05T21:27:12.796Z,100.00
2019-04-05T21:29:45.582Z,100.00
2019-04-05T21:32:16.238Z,100.00
2019-04-05T21:34:46.777Z,100.00
2019-04-05T21:37:17.371Z,100.00
2019-04-05T21:39:47.959Z,100.00
2019-04-05T21:42:18.558Z,100.00
2019-04-05T21:44:49.185Z,100.00
2019-04-05T21:47:19.809Z,100.00
2019-04-05T21:49:50.396Z,100.00
2019-04-05T21:52:21.071Z,100.00
2019-04-05T21:54:51.672Z,100.00
2019-04-05T21:57:22.332Z,100.00
2019-04-05T21:59:53.828Z,100.00
2019-04-05T22:02:24.614Z,100.00
2019-04-05T22:04:55.138Z,100.00
2019-04-05T22:07:25.891Z,100.00
2019-04-05T22:09:56.480Z,100.00
2019-04-05T22:12:27.095Z,100.00
2019-04-05T22:14:57.710Z,100.00
2019-04-05T22:17:28.366Z,100.00
2019-04-05T22:19:58.973Z,100.00
2019-04-05T22:22:29.600Z,100.00
2019-04-05T22:25:00.180Z,100.00
2019-04-05T22:27:30.758Z,100.00
2019-04-05T22:30:01.326Z,100.00
2019-04-05T22:32:33.736Z,100.00
2019-04-05T22:35:04.517Z,100.00
2019-04-05T22:37:36.337Z,100.00
2019-04-05T22:40:07.229Z,100.00
2019-04-05T22:42:39.940Z,100.00
2019-04-05T22:45:11.046Z,100.00
2019-04-05T22:47:41.657Z,100.00
2019-04-05T22:50:12.903Z,100.00
2019-04-05T22:52:43.538Z,100.00
2019-04-05T22:55:14.376Z,100.00
2019-04-05T22:57:44.946Z,100.00
2019-04-05T23:00:15.697Z,100.00
2019-04-05T23:02:46.296Z,100.00
2019-04-05T23:05:22.671Z,100.00
2019-04-05T23:07:53.249Z,100.00
2019-04-05T23:10:23.819Z,100.00
2019-04-05T23:12:54.423Z,100.00
2019-04-05T23:15:25.022Z,100.00
2019-04-05T23:17:55.688Z,100.00
2019-04-05T23:20:26.291Z,100.00
2019-04-05T23:22:56.915Z,100.00
2019-04-05T23:25:27.456Z,100.00
2019-04-05T23:28:00.105Z,100.00
2019-04-05T23:30:33.946Z,100.00
2019-04-05T23:33:03.885Z,100.00
2019-04-05T23:35:34.451Z,100.00
2019-04-05T23:38:06.366Z,100.00
2019-04-05T23:40:37.206Z,100.00
2019-04-05T23:43:07.822Z,100.00
2019-04-05T23:45:39.742Z,100.00
2019-04-05T23:48:10.314Z,100.00
2019-04-05T23:50:40.863Z,100.00
2019-04-05T23:53:11.461Z,100.00
2019-04-05T23:55:42.068Z,100.00
2019-04-05T23:58:12.663Z,100.00
